Hamilton Island, Australia
Current Conditions -  °F | °C
As of 9:00 AM on Friday 19 Dec 2014 (Local Time) from YBHM Reporting Station
Clear Clear  
Wind Chill: 82°   Ceiling: Unl
Heat Index: 87°   Visibility: 6mi
Dew Point: 72°   Wind: 13mph
Humidity: 70%   Direction: 330°NNW
Pressure: 29.88"   Gusts: NA
Location:  20.35°S, 148.95°E
Report Text: YBHM 182300Z AUTO 33011KT 9999 // NCD 28/22 Q1012
Loading
Personal Weather Stations






























Interactive Weather Map New forecast layout! Learn more

10-Day Weather Forecast

Advertisements
Track Severe Weather on mobile